sensor_id;sensor_type;location;lat;lon;timestamp;pressure;altitude;pressure_sealevel;temperature
72054;BMP280;59918;51.280;7.950;2023-03-14T00:02:19;95669.72;;;10.80
72054;BMP280;59918;51.280;7.950;2023-03-14T00:04:44;95676.66;;;10.84
72054;BMP280;59918;51.280;7.950;2023-03-14T00:07:10;95665.13;;;10.87
72054;BMP280;59918;51.280;7.950;2023-03-14T00:09:36;95653.28;;;10.86
72054;BMP280;59918;51.280;7.950;2023-03-14T00:12:01;95652.25;;;10.77
72054;BMP280;59918;51.280;7.950;2023-03-14T00:14:26;95659.16;;;10.66
72054;BMP280;59918;51.280;7.950;2023-03-14T00:16:51;95645.03;;;10.64
72054;BMP280;59918;51.280;7.950;2023-03-14T00:19:16;95647.88;;;10.67
72054;BMP280;59918;51.280;7.950;2023-03-14T00:21:41;95642.97;;;10.71
72054;BMP280;59918;51.280;7.950;2023-03-14T00:24:07;95636.06;;;10.71
72054;BMP280;59918;51.280;7.950;2023-03-14T00:26:32;95636.81;;;10.72
72054;BMP280;59918;51.280;7.950;2023-03-14T00:28:58;95632.19;;;10.74
72054;BMP280;59918;51.280;7.950;2023-03-14T00:31:23;95625.25;;;10.74
72054;BMP280;59918;51.280;7.950;2023-03-14T00:33:48;95640.91;;;10.73
72054;BMP280;59918;51.280;7.950;2023-03-14T00:36:14;95643.47;;;10.73
72054;BMP280;59918;51.280;7.950;2023-03-14T00:38:40;95662.28;;;10.73
72054;BMP280;59918;51.280;7.950;2023-03-14T00:41:06;95674.31;;;10.73
72054;BMP280;59918;51.280;7.950;2023-03-14T00:43:31;95687.44;;;10.71
72054;BMP280;59918;51.280;7.950;2023-03-14T00:45:56;95681.53;;;10.71
72054;BMP280;59918;51.280;7.950;2023-03-14T00:48:24;95673.81;;;10.71
72054;BMP280;59918;51.280;7.950;2023-03-14T00:50:49;95662.53;;;10.72
72054;BMP280;59918;51.280;7.950;2023-03-14T00:53:15;95658.91;;;10.73
72054;BMP280;59918;51.280;7.950;2023-03-14T00:55:40;95652.00;;;10.73
72054;BMP280;59918;51.280;7.950;2023-03-14T00:58:06;95662.03;;;10.75
72054;BMP280;59918;51.280;7.950;2023-03-14T01:00:31;95644.56;;;10.77
72054;BMP280;59918;51.280;7.950;2023-03-14T01:02:57;95635.28;;;10.76
72054;BMP280;59918;51.280;7.950;2023-03-14T01:05:22;95630.91;;;10.76
72054;BMP280;59918;51.280;7.950;2023-03-14T01:07:47;95622.44;;;10.76
72054;BMP280;59918;51.280;7.950;2023-03-14T01:10:12;95615.47;;;10.76
72054;BMP280;59918;51.280;7.950;2023-03-14T01:12:38;95597.25;;;10.78
72054;BMP280;59918;51.280;7.950;2023-03-14T01:15:03;95612.16;;;10.76
72054;BMP280;59918;51.280;7.950;2023-03-14T01:17:28;95611.13;;;10.77
72054;BMP280;59918;51.280;7.950;2023-03-14T01:19:53;95613.94;;;10.75
72054;BMP280;59918;51.280;7.950;2023-03-14T01:22:18;95614.97;;;10.74
72054;BMP280;59918;51.280;7.950;2023-03-14T01:24:44;95625.47;;;10.63
72054;BMP280;59918;51.280;7.950;2023-03-14T01:27:09;95611.59;;;10.49
72054;BMP280;59918;51.280;7.950;2023-03-14T01:29:34;95616.69;;;10.39
72054;BMP280;59918;51.280;7.950;2023-03-14T01:31:59;95599.00;;;10.38
72054;BMP280;59918;51.280;7.950;2023-03-14T01:34:24;95603.88;;;10.34
72054;BMP280;59918;51.280;7.950;2023-03-14T01:36:49;95590.22;;;10.29
72054;BMP280;59918;51.280;7.950;2023-03-14T01:39:14;95594.56;;;10.19
72054;BMP280;59918;51.280;7.950;2023-03-14T01:41:40;95606.34;;;10.10
72054;BMP280;59918;51.280;7.950;2023-03-14T01:44:05;95582.97;;;10.01
72054;BMP280;59918;51.280;7.950;2023-03-14T01:46:35;95588.34;;;9.95
72054;BMP280;59918;51.280;7.950;2023-03-14T01:49:13;95583.66;;;9.87
72054;BMP280;59918;51.280;7.950;2023-03-14T01:51:59;95587.72;;;9.73
72054;BMP280;59918;51.280;7.950;2023-03-14T01:54:39;95594.56;;;9.63
72054;BMP280;59918;51.280;7.950;2023-03-14T01:57:08;95580.97;;;9.57
72054;BMP280;59918;51.280;7.950;2023-03-14T01:59:35;95599.66;;;9.53
72054;BMP280;59918;51.280;7.950;2023-03-14T02:02:01;95589.13;;;9.49
72054;BMP280;59918;51.280;7.950;2023-03-14T02:04:28;95582.94;;;9.45
72054;BMP280;59918;51.280;7.950;2023-03-14T02:07:05;95598.06;;;9.42
72054;BMP280;59918;51.280;7.950;2023-03-14T02:09:33;95600.59;;;9.37
72054;BMP280;59918;51.280;7.950;2023-03-14T02:11:58;95637.00;;;9.34
72054;BMP280;59918;51.280;7.950;2023-03-14T02:14:28;95702.34;;;9.32
72054;BMP280;59918;51.280;7.950;2023-03-14T02:16:55;95709.56;;;9.04
72054;BMP280;59918;51.280;7.950;2023-03-14T02:19:21;95686.22;;;8.48
72054;BMP280;59918;51.280;7.950;2023-03-14T02:21:50;95665.22;;;8.08
72054;BMP280;59918;51.280;7.950;2023-03-14T02:29:30;95661.50;;;7.57
72054;BMP280;59918;51.280;7.950;2023-03-14T02:31:56;95659.97;;;7.56
72054;BMP280;59918;51.280;7.950;2023-03-14T02:34:21;95646.16;;;7.57
72054;BMP280;59918;51.280;7.950;2023-03-14T02:36:47;95629.81;;;7.58
72054;BMP280;59918;51.280;7.950;2023-03-14T02:39:16;95628.78;;;7.59
72054;BMP280;59918;51.280;7.950;2023-03-14T02:41:42;95625.00;;;7.62
72054;BMP280;59918;51.280;7.950;2023-03-14T02:44:08;95617.88;;;7.63
72054;BMP280;59918;51.280;7.950;2023-03-14T02:46:33;95594.06;;;7.63
72054;BMP280;59918;51.280;7.950;2023-03-14T02:49:03;95598.19;;;7.64
72054;BMP280;59918;51.280;7.950;2023-03-14T02:51:28;95599.19;;;7.63
72054;BMP280;59918;51.280;7.950;2023-03-14T02:53:53;95596.88;;;7.62
72054;BMP280;59918;51.280;7.950;2023-03-14T02:56:19;95604.84;;;7.65
72054;BMP280;59918;51.280;7.950;2023-03-14T02:58:44;95601.06;;;7.67
72054;BMP280;59918;51.280;7.950;2023-03-14T03:01:09;95585.97;;;7.71
72054;BMP280;59918;51.280;7.950;2023-03-14T03:03:34;95583.72;;;7.74
72054;BMP280;59918;51.280;7.950;2023-03-14T03:06:00;95580.44;;;7.79
72054;BMP280;59918;51.280;7.950;2023-03-14T03:08:25;95579.75;;;7.83
72054;BMP280;59918;51.280;7.950;2023-03-14T03:10:51;95569.03;;;7.86
72054;BMP280;59918;51.280;7.950;2023-03-14T03:13:17;95572.66;;;7.90
72054;BMP280;59918;51.280;7.950;2023-03-14T03:15:42;95559.63;;;7.92
72054;BMP280;59918;51.280;7.950;2023-03-14T03:18:07;95587.28;;;7.95
72054;BMP280;59918;51.280;7.950;2023-03-14T03:20:33;95561.47;;;7.96
72054;BMP280;59918;51.280;7.950;2023-03-14T03:22:58;95568.41;;;8.00
72054;BMP280;59918;51.280;7.950;2023-03-14T03:25:24;95556.69;;;8.04
72054;BMP280;59918;51.280;7.950;2023-03-14T03:27:49;95568.81;;;8.09
72054;BMP280;59918;51.280;7.950;2023-03-14T03:30:14;95560.09;;;8.10
72054;BMP280;59918;51.280;7.950;2023-03-14T03:32:39;95556.53;;;8.11
72054;BMP280;59918;51.280;7.950;2023-03-14T03:35:05;95560.09;;;8.10
72054;BMP280;59918;51.280;7.950;2023-03-14T03:37:31;95560.88;;;8.10
72054;BMP280;59918;51.280;7.950;2023-03-14T03:39:56;95559.63;;;8.13
72054;BMP280;59918;51.280;7.950;2023-03-14T03:42:21;95562.72;;;8.15
72054;BMP280;59918;51.280;7.950;2023-03-14T03:44:46;95567.34;;;8.18
72054;BMP280;59918;51.280;7.950;2023-03-14T03:47:11;95564.56;;;8.19
72054;BMP280;59918;51.280;7.950;2023-03-14T03:49:36;95553.28;;;8.20
72054;BMP280;59918;51.280;7.950;2023-03-14T03:52:02;95553.84;;;8.22
72054;BMP280;59918;51.280;7.950;2023-03-14T03:54:27;95554.59;;;8.23
72054;BMP280;59918;51.280;7.950;2023-03-14T03:56:52;95551.81;;;8.24
72054;BMP280;59918;51.280;7.950;2023-03-14T03:59:17;95552.06;;;8.28
72054;BMP280;59918;51.280;7.950;2023-03-14T04:01:42;95543.16;;;8.30
72054;BMP280;59918;51.280;7.950;2023-03-14T04:04:08;95544.47;;;8.33
72054;BMP280;59918;51.280;7.950;2023-03-14T04:06:33;95528.88;;;8.34
72054;BMP280;59918;51.280;7.950;2023-03-14T04:08:58;95529.94;;;8.38
72054;BMP280;59918;51.280;7.950;2023-03-14T04:11:23;95533.00;;;8.40
72054;BMP280;59918;51.280;7.950;2023-03-14T04:13:48;95522.28;;;8.43
72054;BMP280;59918;51.280;7.950;2023-03-14T04:16:14;95526.91;;;8.46
72054;BMP280;59918;51.280;7.950;2023-03-14T04:18:40;95522.31;;;8.48
72054;BMP280;59918;51.280;7.950;2023-03-14T04:21:05;95513.59;;;8.49
72054;BMP280;59918;51.280;7.950;2023-03-14T04:23:33;95524.38;;;8.51
72054;BMP280;59918;51.280;7.950;2023-03-14T04:25:58;95527.47;;;8.53
72054;BMP280;59918;51.280;7.950;2023-03-14T04:28:24;95512.88;;;8.53
72054;BMP280;59918;51.280;7.950;2023-03-14T04:30:49;95522.13;;;8.54
72054;BMP280;59918;51.280;7.950;2023-03-14T04:33:14;95516.22;;;8.54
72054;BMP280;59918;51.280;7.950;2023-03-14T04:35:39;95504.41;;;8.53
72054;BMP280;59918;51.280;7.950;2023-03-14T04:38:04;95503.91;;;8.51
72054;BMP280;59918;51.280;7.950;2023-03-14T04:40:29;95500.81;;;8.49
72054;BMP280;59918;51.280;7.950;2023-03-14T04:42:54;95497.97;;;8.45
72054;BMP280;59918;51.280;7.950;2023-03-14T04:45:19;95501.53;;;8.44
72054;BMP280;59918;51.280;7.950;2023-03-14T04:47:45;95504.88;;;8.45
72054;BMP280;59918;51.280;7.950;2023-03-14T04:50:10;95498.47;;;8.42
72054;BMP280;59918;51.280;7.950;2023-03-14T04:52:35;95496.66;;;8.43
72054;BMP280;59918;51.280;7.950;2023-03-14T04:55:01;95493.34;;;8.42
72054;BMP280;59918;51.280;7.950;2023-03-14T04:57:26;95494.09;;;8.43
72054;BMP280;59918;51.280;7.950;2023-03-14T04:59:51;95493.34;;;8.42
72054;BMP280;59918;51.280;7.950;2023-03-14T05:02:16;95478.75;;;8.43
72054;BMP280;59918;51.280;7.950;2023-03-14T05:04:41;95478.75;;;8.43
72054;BMP280;59918;51.280;7.950;2023-03-14T05:07:06;95487.72;;;8.45
72054;BMP280;59918;51.280;7.950;2023-03-14T05:09:32;95475.19;;;8.44
72054;BMP280;59918;51.280;7.950;2023-03-14T05:11:57;95482.59;;;8.45
72054;BMP280;59918;51.280;7.950;2023-03-14T05:14:22;95481.81;;;8.45
72054;BMP280;59918;51.280;7.950;2023-03-14T05:16:47;95471.59;;;8.45
72054;BMP280;59918;51.280;7.950;2023-03-14T05:19:12;95478.75;;;8.43
72054;BMP280;59918;51.280;7.950;2023-03-14T05:21:37;95472.09;;;8.42
72054;BMP280;59918;51.280;7.950;2023-03-14T05:24:02;95463.63;;;8.41
72054;BMP280;59918;51.280;7.950;2023-03-14T05:26:28;95469.53;;;8.42
72054;BMP280;59918;51.280;7.950;2023-03-14T05:28:53;95457.72;;;8.41
72054;BMP280;59918;51.280;7.950;2023-03-14T05:31:18;95464.41;;;8.42
72054;BMP280;59918;51.280;7.950;2023-03-14T05:33:43;95466.97;;;8.42
72054;BMP280;59918;51.280;7.950;2023-03-14T05:36:09;95465.19;;;8.42
72054;BMP280;59918;51.280;7.950;2023-03-14T05:38:34;95465.19;;;8.42
72054;BMP280;59918;51.280;7.950;2023-03-14T05:40:59;95465.94;;;8.43
72054;BMP280;59918;51.280;7.950;2023-03-14T05:43:24;95463.38;;;8.43
72054;BMP280;59918;51.280;7.950;2023-03-14T05:45:49;95454.94;;;8.42
72054;BMP280;59918;51.280;7.950;2023-03-14T05:48:14;95456.19;;;8.40
72054;BMP280;59918;51.280;7.950;2023-03-14T05:50:40;95462.09;;;8.40
72054;BMP280;59918;51.280;7.950;2023-03-14T05:53:05;95463.63;;;8.41
72054;BMP280;59918;51.280;7.950;2023-03-14T05:55:30;95464.66;;;8.40
72054;BMP280;59918;51.280;7.950;2023-03-14T05:57:55;95455.41;;;8.39
72054;BMP280;59918;51.280;7.950;2023-03-14T06:00:20;95455.94;;;8.41
72054;BMP280;59918;51.280;7.950;2023-03-14T06:02:46;95450.03;;;8.41
72054;BMP280;59918;51.280;7.950;2023-03-14T06:05:11;95456.97;;;8.40
72054;BMP280;59918;51.280;7.950;2023-03-14T06:07:36;95450.03;;;8.41
72054;BMP280;59918;51.280;7.950;2023-03-14T06:10:01;95460.28;;;8.41
72054;BMP280;59918;51.280;7.950;2023-03-14T06:12:27;95449.03;;;8.42
72054;BMP280;59918;51.280;7.950;2023-03-14T06:14:52;95454.41;;;8.40
72054;BMP280;59918;51.280;7.950;2023-03-14T06:17:17;95445.97;;;8.40
72054;BMP280;59918;51.280;7.950;2023-03-14T06:19:42;95451.09;;;8.40
72054;BMP280;59918;51.280;7.950;2023-03-14T06:22:07;95451.09;;;8.40
72054;BMP280;59918;51.280;7.950;2023-03-14T06:24:32;95453.38;;;8.41
72054;BMP280;59918;51.280;7.950;2023-03-14T06:26:57;95461.84;;;8.42
72054;BMP280;59918;51.280;7.950;2023-03-14T06:29:23;95448.00;;;8.43
72054;BMP280;59918;51.280;7.950;2023-03-14T06:31:48;95447.50;;;8.41
72054;BMP280;59918;51.280;7.950;2023-03-14T06:34:13;95446.47;;;8.42
72054;BMP280;59918;51.280;7.950;2023-03-14T06:36:38;95451.59;;;8.42
72054;BMP280;59918;51.280;7.950;2023-03-14T06:39:03;95449.56;;;8.44
72054;BMP280;59918;51.280;7.950;2023-03-14T06:41:28;95442.41;;;8.46
72054;BMP280;59918;51.280;7.950;2023-03-14T06:43:53;95451.63;;;8.47
72054;BMP280;59918;51.280;7.950;2023-03-14T06:46:18;95439.09;;;8.50
72054;BMP280;59918;51.280;7.950;2023-03-14T06:48:44;95450.16;;;8.56
72054;BMP280;59918;51.280;7.950;2023-03-14T06:51:09;95450.41;;;8.54
72054;BMP280;59918;51.280;7.950;2023-03-14T06:53:34;95441.16;;;8.53
72054;BMP280;59918;51.280;7.950;2023-03-14T06:55:59;95448.38;;;8.56
72054;BMP280;59918;51.280;7.950;2023-03-14T06:58:24;95456.81;;;8.57
72054;BMP280;59918;51.280;7.950;2023-03-14T07:00:49;95456.88;;;8.62
72054;BMP280;59918;51.280;7.950;2023-03-14T07:03:15;95447.91;;;8.64
72054;BMP280;59918;51.280;7.950;2023-03-14T07:05:40;95452.53;;;8.67
72054;BMP280;59918;51.280;7.950;2023-03-14T07:08:06;95448.97;;;8.68
72054;BMP280;59918;51.280;7.950;2023-03-14T07:10:31;95446.91;;;8.70
72054;BMP280;59918;51.280;7.950;2023-03-14T07:12:56;95445.66;;;8.73
72054;BMP280;59918;51.280;7.950;2023-03-14T07:15:21;95452.34;;;8.73
72054;BMP280;59918;51.280;7.950;2023-03-14T07:17:46;95448.72;;;8.74
72054;BMP280;59918;51.280;7.950;2023-03-14T07:20:12;95451.53;;;8.73
72054;BMP280;59918;51.280;7.950;2023-03-14T07:22:37;95460.25;;;8.72
72054;BMP280;59918;51.280;7.950;2023-03-14T07:25:02;95443.84;;;8.73
72054;BMP280;59918;51.280;7.950;2023-03-14T07:27:27;95452.81;;;8.71
72054;BMP280;59918;51.280;7.950;2023-03-14T07:29:52;95442.59;;;8.75
72054;BMP280;59918;51.280;7.950;2023-03-14T07:32:17;95443.88;;;8.78
72054;BMP280;59918;51.280;7.950;2023-03-14T07:34:43;95452.38;;;8.83
72054;BMP280;59918;51.280;7.950;2023-03-14T07:37:08;95453.91;;;8.84
72054;BMP280;59918;51.280;7.950;2023-03-14T07:39:33;95455.47;;;8.85
72054;BMP280;59918;51.280;7.950;2023-03-14T07:41:58;95449.06;;;8.88
72054;BMP280;59918;51.280;7.950;2023-03-14T07:44:23;95463.97;;;8.91
72054;BMP280;59918;51.280;7.950;2023-03-14T07:46:49;95465.25;;;8.93
72054;BMP280;59918;51.280;7.950;2023-03-14T07:49:14;95470.13;;;8.95
72054;BMP280;59918;51.280;7.950;2023-03-14T07:51:39;95481.38;;;8.94
72054;BMP280;59918;51.280;7.950;2023-03-14T07:54:04;95474.97;;;8.91
72054;BMP280;59918;51.280;7.950;2023-03-14T07:56:29;95476.53;;;8.97
72054;BMP280;59918;51.280;7.950;2023-03-14T07:58:54;95478.13;;;9.03
72054;BMP280;59918;51.280;7.950;2023-03-14T08:01:19;95466.59;;;9.06
72054;BMP280;59918;51.280;7.950;2023-03-14T08:03:44;95484.28;;;9.07
72054;BMP280;59918;51.280;7.950;2023-03-14T08:06:10;95490.94;;;9.08
72054;BMP280;59918;51.280;7.950;2023-03-14T08:08:35;95479.13;;;9.02
72054;BMP280;59918;51.280;7.950;2023-03-14T08:11:04;95482.44;;;8.98
72054;BMP280;59918;51.280;7.950;2023-03-14T08:13:29;95483.72;;;9.00
72054;BMP280;59918;51.280;7.950;2023-03-14T08:15:54;95485.28;;;9.01
72054;BMP280;59918;51.280;7.950;2023-03-14T08:18:19;95491.97;;;9.07
72054;BMP280;59918;51.280;7.950;2023-03-14T08:20:44;95486.09;;;9.07
72054;BMP280;59918;51.280;7.950;2023-03-14T08:23:09;95488.66;;;9.11
72054;BMP280;59918;51.280;7.950;2023-03-14T08:25:34;95487.66;;;9.17
72054;BMP280;59918;51.280;7.950;2023-03-14T08:28:00;95487.97;;;9.26
72054;BMP280;59918;51.280;7.950;2023-03-14T08:30:25;95492.59;;;9.29
72054;BMP280;59918;51.280;7.950;2023-03-14T08:32:50;95489.50;;;9.27
72054;BMP280;59918;51.280;7.950;2023-03-14T08:35:15;95494.88;;;9.25
72054;BMP280;59918;51.280;7.950;2023-03-14T08:37:40;95509.78;;;9.28
72054;BMP280;59918;51.280;7.950;2023-03-14T08:40:06;95501.81;;;9.30
72054;BMP280;59918;51.280;7.950;2023-03-14T08:42:32;95501.84;;;9.35
72054;BMP280;59918;51.280;7.950;2023-03-14T08:44:57;95498.81;;;9.43
72054;BMP280;59918;51.280;7.950;2023-03-14T08:47:22;95496.28;;;9.47
72054;BMP280;59918;51.280;7.950;2023-03-14T08:49:47;95508.63;;;9.60
72054;BMP280;59918;51.280;7.950;2023-03-14T08:52:12;95509.91;;;9.63
72054;BMP280;59918;51.280;7.950;2023-03-14T08:54:37;95509.19;;;9.67
72054;BMP280;59918;51.280;7.950;2023-03-14T08:57:03;95514.31;;;9.67
72054;BMP280;59918;51.280;7.950;2023-03-14T08:59:28;95504.81;;;9.73
72054;BMP280;59918;51.280;7.950;2023-03-14T09:01:53;95504.59;;;9.84
72054;BMP280;59918;51.280;7.950;2023-03-14T09:04:18;95503.59;;;9.85
72054;BMP280;59918;51.280;7.950;2023-03-14T09:06:43;95502.06;;;9.89
72054;BMP280;59918;51.280;7.950;2023-03-14T09:09:08;95505.88;;;9.86
72054;BMP280;59918;51.280;7.950;2023-03-14T09:11:33;95499.47;;;9.84
72054;BMP280;59918;51.280;7.950;2023-03-14T09:13:58;95503.06;;;9.88
72054;BMP280;59918;51.280;7.950;2023-03-14T09:16:24;95504.69;;;9.99
72054;BMP280;59918;51.280;7.950;2023-03-14T09:18:49;95498.25;;;10.06
72054;BMP280;59918;51.280;7.950;2023-03-14T09:21:14;95502.09;;;10.04
72054;BMP280;59918;51.280;7.950;2023-03-14T09:23:39;95509.84;;;10.09
72054;BMP280;59918;51.280;7.950;2023-03-14T09:26:04;95504.44;;;10.15
72054;BMP280;59918;51.280;7.950;2023-03-14T09:28:29;95508.06;;;10.14
72054;BMP280;59918;51.280;7.950;2023-03-14T09:30:55;95504.47;;;10.20
72054;BMP280;59918;51.280;7.950;2023-03-14T09:33:20;95498.81;;;10.38
72054;BMP280;59918;51.280;7.950;2023-03-14T09:35:45;95501.13;;;10.44
72054;BMP280;59918;51.280;7.950;2023-03-14T09:38:10;95502.66;;;10.65
72054;BMP280;59918;51.280;7.950;2023-03-14T09:40:36;95519.63;;;10.81
72054;BMP280;59918;51.280;7.950;2023-03-14T09:43:01;95503.16;;;10.96
72054;BMP280;59918;51.280;7.950;2023-03-14T09:45:28;95518.81;;;11.00
72054;BMP280;59918;51.280;7.950;2023-03-14T09:47:54;95514.47;;;10.95
72054;BMP280;59918;51.280;7.950;2023-03-14T09:50:20;95516.00;;;10.92
72054;BMP280;59918;51.280;7.950;2023-03-14T09:52:46;95516.53;;;10.84
72054;BMP280;59918;51.280;7.950;2023-03-14T09:55:20;95524.25;;;10.69
72054;BMP280;59918;51.280;7.950;2023-03-14T09:57:46;95520.91;;;10.39
72054;BMP280;59918;51.280;7.950;2023-03-14T10:00:19;95526.03;;;10.24
72054;BMP280;59918;51.280;7.950;2023-03-14T10:02:52;95531.41;;;10.22
72054;BMP280;59918;51.280;7.950;2023-03-14T10:05:19;95532.44;;;10.17
72054;BMP280;59918;51.280;7.950;2023-03-14T10:07:44;95528.31;;;10.16
72054;BMP280;59918;51.280;7.950;2023-03-14T10:12:41;95557.03;;;9.93
72054;BMP280;59918;51.280;7.950;2023-03-14T10:15:08;95568.22;;;9.77
72054;BMP280;59918;51.280;7.950;2023-03-14T10:20:05;95558.22;;;9.76
72054;BMP280;59918;51.280;7.950;2023-03-14T10:22:30;95592.56;;;9.75
72054;BMP280;59918;51.280;7.950;2023-03-14T10:24:57;95591.28;;;9.67
72054;BMP280;59918;51.280;7.950;2023-03-14T10:27:27;95607.63;;;9.51
72054;BMP280;59918;51.280;7.950;2023-03-14T10:29:53;95611.38;;;9.39
72054;BMP280;59918;51.280;7.950;2023-03-14T10:32:19;95607.06;;;9.45
72054;BMP280;59918;51.280;7.950;2023-03-14T10:34:45;95621.50;;;9.60
72054;BMP280;59918;51.280;7.950;2023-03-14T10:37:27;95614.56;;;9.61
72054;BMP280;59918;51.280;7.950;2023-03-14T10:39:53;95619.16;;;9.54
72054;BMP280;59918;51.280;7.950;2023-03-14T10:42:24;95645.28;;;9.46
72054;BMP280;59918;51.280;7.950;2023-03-14T10:44:53;95666.53;;;9.42
72054;BMP280;59918;51.280;7.950;2023-03-14T10:47:19;95689.59;;;9.37
72054;BMP280;59918;51.280;7.950;2023-03-14T10:49:45;95708.00;;;9.34
72054;BMP280;59918;51.280;7.950;2023-03-14T10:55:09;95740.47;;;9.18
72054;BMP280;59918;51.280;7.950;2023-03-14T10:57:38;95745.84;;;8.91
72054;BMP280;59918;51.280;7.950;2023-03-14T11:00:05;95762.41;;;8.83
72054;BMP280;59918;51.280;7.950;2023-03-14T11:02:38;95760.09;;;8.82
72054;BMP280;59918;51.280;7.950;2023-03-14T11:07:40;95793.16;;;8.83
72054;BMP280;59918;51.280;7.950;2023-03-14T11:15:02;95808.13;;;8.70
72054;BMP280;59918;51.280;7.950;2023-03-14T11:17:39;95819.25;;;8.59
72054;BMP280;59918;51.280;7.950;2023-03-14T11:22:45;95837.78;;;8.45
72054;BMP280;59918;51.280;7.950;2023-03-14T11:28:02;95867.81;;;8.33
72054;BMP280;59918;51.280;7.950;2023-03-14T11:30:35;95890.88;;;8.33
72054;BMP280;59918;51.280;7.950;2023-03-14T11:33:14;95888.69;;;8.25
72054;BMP280;59918;51.280;7.950;2023-03-14T11:35:53;95907.88;;;8.23
72054;BMP280;59918;51.280;7.950;2023-03-14T11:40:48;95928.81;;;8.20
72054;BMP280;59918;51.280;7.950;2023-03-14T11:43:18;95932.06;;;8.15
72054;BMP280;59918;51.280;7.950;2023-03-14T11:45:45;95935.88;;;8.13
72054;BMP280;59918;51.280;7.950;2023-03-14T11:50:40;95950.97;;;8.14
72054;BMP280;59918;51.280;7.950;2023-03-14T11:53:14;95961.03;;;8.04
72054;BMP280;59918;51.280;7.950;2023-03-14T11:55:42;95962.59;;;8.05
72054;BMP280;59918;51.280;7.950;2023-03-14T12:00:38;95973.94;;;8.09
72054;BMP280;59918;51.280;7.950;2023-03-14T12:05:50;96008.72;;;8.22
72054;BMP280;59918;51.280;7.950;2023-03-14T12:13:09;96036.09;;;7.94
72054;BMP280;59918;51.280;7.950;2023-03-14T12:15:35;96067.59;;;7.83
72054;BMP280;59918;51.280;7.950;2023-03-14T12:18:03;96065.19;;;7.76
72054;BMP280;59918;51.280;7.950;2023-03-14T12:20:28;96074.63;;;7.76
72054;BMP280;59918;51.280;7.950;2023-03-14T12:22:55;96094.97;;;7.82
72054;BMP280;59918;51.280;7.950;2023-03-14T12:25:21;96103.47;;;7.71
72054;BMP280;59918;51.280;7.950;2023-03-14T12:27:48;96111.16;;;7.60
72054;BMP280;59918;51.280;7.950;2023-03-14T12:30:18;96125.94;;;7.58
72054;BMP280;59918;51.280;7.950;2023-03-14T12:35:35;96147.09;;;7.42
72054;BMP280;59918;51.280;7.950;2023-03-14T12:38:00;96152.97;;;7.31
72054;BMP280;59918;51.280;7.950;2023-03-14T12:40:31;96157.88;;;7.44
72054;BMP280;59918;51.280;7.950;2023-03-14T12:42:58;96173.31;;;7.61
72054;BMP280;59918;51.280;7.950;2023-03-14T12:45:33;96179.66;;;7.58
72054;BMP280;59918;51.280;7.950;2023-03-14T12:48:09;96183.53;;;7.61
72054;BMP280;59918;51.280;7.950;2023-03-14T12:50:44;96185.53;;;7.47
72054;BMP280;59918;51.280;7.950;2023-03-14T12:53:35;96200.63;;;7.26
72054;BMP280;59918;51.280;7.950;2023-03-14T12:56:02;96203.31;;;7.20
72054;BMP280;59918;51.280;7.950;2023-03-14T12:58:31;96226.66;;;7.23
72054;BMP280;59918;51.280;7.950;2023-03-14T13:00:59;96223.88;;;7.25
72054;BMP280;59918;51.280;7.950;2023-03-14T13:03:26;96228.19;;;7.24
72054;BMP280;59918;51.280;7.950;2023-03-14T13:06:01;96236.78;;;7.29
72054;BMP280;59918;51.280;7.950;2023-03-14T13:08:43;96235.53;;;7.32
72054;BMP280;59918;51.280;7.950;2023-03-14T13:11:10;96240.78;;;7.37
72054;BMP280;59918;51.280;7.950;2023-03-14T13:13:37;96251.13;;;7.42
72054;BMP280;59918;51.280;7.950;2023-03-14T13:16:09;96246.13;;;7.47
72054;BMP280;59918;51.280;7.950;2023-03-14T13:21:21;96266.56;;;7.35
72054;BMP280;59918;51.280;7.950;2023-03-14T13:26:19;96271.34;;;7.21
72054;BMP280;59918;51.280;7.950;2023-03-14T13:28:45;96275.31;;;7.17
72054;BMP280;59918;51.280;7.950;2023-03-14T13:31:16;96276.44;;;7.21
72054;BMP280;59918;51.280;7.950;2023-03-14T13:33:43;96290.78;;;7.22
72054;BMP280;59918;51.280;7.950;2023-03-14T13:36:09;96286.47;;;7.33
72054;BMP280;59918;51.280;7.950;2023-03-14T13:38:35;96288.72;;;7.41
72054;BMP280;59918;51.280;7.950;2023-03-14T13:41:03;96295.16;;;7.44
72054;BMP280;59918;51.280;7.950;2023-03-14T13:43:30;96299.06;;;7.46
72054;BMP280;59918;51.280;7.950;2023-03-14T13:45:56;96305.97;;;7.57
72054;BMP280;59918;51.280;7.950;2023-03-14T13:48:22;96307.31;;;7.71
72054;BMP280;59918;51.280;7.950;2023-03-14T13:50:58;96311.47;;;7.83
72054;BMP280;59918;51.280;7.950;2023-03-14T13:53:24;96313.91;;;7.90
72054;BMP280;59918;51.280;7.950;2023-03-14T13:55:49;96326.28;;;7.81
72054;BMP280;59918;51.280;7.950;2023-03-14T13:58:22;96334.13;;;7.68
72054;BMP280;59918;51.280;7.950;2023-03-14T14:03:39;96354.97;;;7.43
72054;BMP280;59918;51.280;7.950;2023-03-14T14:06:06;96384.63;;;7.32
72054;BMP280;59918;51.280;7.950;2023-03-14T14:08:33;96397.72;;;7.25
72054;BMP280;59918;51.280;7.950;2023-03-14T14:10:59;96407.69;;;7.15
72054;BMP280;59918;51.280;7.950;2023-03-14T14:13:26;96420.47;;;7.15
72054;BMP280;59918;51.280;7.950;2023-03-14T14:15:53;96443.66;;;7.13
72054;BMP280;59918;51.280;7.950;2023-03-14T14:18:19;96446.06;;;7.08
72054;BMP280;59918;51.280;7.950;2023-03-14T14:20:47;96463.13;;;6.96
72054;BMP280;59918;51.280;7.950;2023-03-14T14:23:14;96461.50;;;6.84
72054;BMP280;59918;51.280;7.950;2023-03-14T14:25:40;96481.44;;;6.76
72054;BMP280;59918;51.280;7.950;2023-03-14T14:28:23;96501.63;;;6.77
72054;BMP280;59918;51.280;7.950;2023-03-14T14:30:58;96508.19;;;6.91
72054;BMP280;59918;51.280;7.950;2023-03-14T14:33:24;96510.53;;;6.92
72054;BMP280;59918;51.280;7.950;2023-03-14T14:35:50;96518.00;;;6.94
72054;BMP280;59918;51.280;7.950;2023-03-14T14:38:16;96513.44;;;6.96
72054;BMP280;59918;51.280;7.950;2023-03-14T14:40:45;96525.19;;;7.03
72054;BMP280;59918;51.280;7.950;2023-03-14T14:43:11;96516.75;;;7.21
72054;BMP280;59918;51.280;7.950;2023-03-14T14:45:39;96521.41;;;7.41
72054;BMP280;59918;51.280;7.950;2023-03-14T14:48:09;96533.41;;;7.59
72054;BMP280;59918;51.280;7.950;2023-03-14T14:50:39;96535.69;;;7.96
72054;BMP280;59918;51.280;7.950;2023-03-14T14:53:49;96542.16;;;8.27
72054;BMP280;59918;51.280;7.950;2023-03-14T14:55:50;96536.69;;;8.75
72054;BMP280;59918;51.280;7.950;2023-03-14T15:00:41;96511.50;;;14.25
72054;BMP280;59918;51.280;7.950;2023-03-14T15:03:14;96511.28;;;15.83
72054;BMP280;59918;51.280;7.950;2023-03-14T15:05:40;96519.47;;;15.42
72054;BMP280;59918;51.280;7.950;2023-03-14T15:08:08;96520.22;;;16.58
72054;BMP280;59918;51.280;7.950;2023-03-14T15:10:33;96520.47;;;18.11